Time;durP1;ratioP1;P1;durP2;ratioP2;P2;SDS_P1;SDS_P2;PMS_P1;PMS_P2;Temp;Humidity;BMP_temperature;BMP_pressure;BME280_temperature;BME280_humidity;BME280_pressure;Samples;Min_cycle;Max_cycle;Signal;HPM_P1;HPM_P2
2023/04/24 00:01:50;;;;;;;8.40;4.65;;;15.10;35.90;;;;;;5069271;27;117891;-84
2023/04/24 00:04:17;;;;;;;6.88;4.60;;;15.10;36.00;;;;;;5046256;27;114579;-85
2023/04/24 00:06:49;;;;;;;6.40;4.70;;;15.20;36.10;;;;;;5067181;27;114322;-85
2023/04/24 00:09:16;;;;;;;6.68;4.82;;;15.00;36.00;;;;;;5049339;27;114335;-85
2023/04/24 00:11:43;;;;;;;6.63;4.70;;;15.10;36.20;;;;;;5031279;27;117153;-84
2023/04/24 00:14:10;;;;;;;8.93;4.57;;;15.00;36.20;;;;;;5065187;27;115327;-84
2023/04/24 00:16:37;;;;;;;7.88;4.93;;;15.00;36.30;;;;;;5047777;27;114688;-84
2023/04/24 00:19:05;;;;;;;7.45;4.63;;;15.00;36.20;;;;;;5049235;27;114630;-85
2023/04/24 00:21:33;;;;;;;8.68;4.95;;;14.90;36.20;;;;;;5046476;27;115005;-84
2023/04/24 00:24:00;;;;;;;7.93;5.15;;;14.90;36.20;;;;;;5047209;27;114684;-86
2023/04/24 00:26:27;;;;;;;6.45;4.78;;;14.90;36.20;;;;;;5034429;27;114526;-85
2023/04/24 00:28:54;;;;;;;7.07;4.88;;;14.90;36.30;;;;;;5086330;27;114455;-85
2023/04/24 00:31:21;;;;;;;6.97;4.43;;;14.80;36.40;;;;;;5051545;27;118689;-85
2023/04/24 00:33:49;;;;;;;6.18;4.57;;;14.90;36.40;;;;;;5051177;27;114645;-85
2023/04/24 00:36:16;;;;;;;6.32;4.93;;;14.90;36.40;;;;;;5068249;27;115243;-85
2023/04/24 00:38:44;;;;;;;5.65;4.70;;;14.90;36.40;;;;;;5085961;27;114537;-84
2023/04/24 00:41:11;;;;;;;8.13;4.80;;;14.80;36.40;;;;;;5050903;27;115391;-84
2023/04/24 00:43:39;;;;;;;8.40;4.80;;;14.80;36.30;;;;;;5067732;27;114630;-84
2023/04/24 00:46:06;;;;;;;7.85;4.63;;;14.80;36.20;;;;;;5050856;27;114585;-83
2023/04/24 00:48:34;;;;;;;6.47;4.65;;;14.80;36.10;;;;;;5030155;27;116864;-84
2023/04/24 00:51:03;;;;;;;7.40;5.07;;;14.80;36.20;;;;;;5013492;27;115804;-83
2023/04/24 00:53:32;;;;;;;9.13;4.70;;;14.80;36.30;;;;;;5046155;27;117742;-84
2023/04/24 00:56:02;;;;;;;5.97;4.57;;;14.80;36.10;;;;;;5047918;27;114308;-83
2023/04/24 00:58:30;;;;;;;6.13;4.88;;;14.80;36.10;;;;;;5030924;27;114471;-84
2023/04/24 01:00:57;;;;;;;7.05;4.88;;;14.80;36.10;;;;;;5030065;27;115530;-84
2023/04/24 01:03:26;;;;;;;7.57;4.68;;;14.80;36.10;;;;;;5030630;27;114692;-84
2023/04/24 01:05:57;;;;;;;6.32;4.53;;;14.80;36.20;;;;;;5032058;27;114306;-83
2023/04/24 01:08:24;;;;;;;9.30;4.88;;;14.80;36.20;;;;;;5030575;27;117847;-84
2023/04/24 01:10:52;;;;;;;6.78;4.50;;;14.80;36.30;;;;;;5012793;27;119127;-83
2023/04/24 01:13:21;;;;;;;7.63;4.68;;;14.80;36.20;;;;;;5045550;27;115116;-85
2023/04/24 01:15:48;;;;;;;6.28;4.60;;;14.70;36.10;;;;;;5030766;27;114616;-84
2023/04/24 01:18:15;;;;;;;6.75;4.85;;;14.80;36.10;;;;;;5030429;27;114418;-84
2023/04/24 01:20:44;;;;;;;8.13;5.10;;;14.70;36.20;;;;;;5046360;27;114938;-85
2023/04/24 01:23:11;;;;;;;6.22;4.93;;;14.70;36.20;;;;;;5046552;27;115105;-86
2023/04/24 01:25:38;;;;;;;7.57;5.35;;;14.70;36.20;;;;;;5030037;27;118378;-84
2023/04/24 01:28:05;;;;;;;9.45;5.18;;;14.70;36.30;;;;;;5049738;27;114181;-84
2023/04/24 01:30:33;;;;;;;8.55;5.80;;;14.70;36.50;;;;;;5032167;27;118002;-85
2023/04/24 01:33:00;;;;;;;8.88;5.38;;;14.70;36.50;;;;;;5034299;27;115222;-84
2023/04/24 01:35:27;;;;;;;7.55;5.30;;;14.70;36.70;;;;;;5050068;27;114606;-84
2023/04/24 01:37:57;;;;;;;8.88;4.97;;;14.60;36.60;;;;;;5049351;27;114414;-85
2023/04/24 01:40:24;;;;;;;8.57;5.35;;;14.60;36.60;;;;;;5050332;27;114905;-84
2023/04/24 01:42:51;;;;;;;6.40;4.88;;;14.50;36.80;;;;;;5047737;27;114747;-84
2023/04/24 01:45:18;;;;;;;8.30;5.07;;;14.50;36.80;;;;;;5031360;27;114605;-85
2023/04/24 01:47:46;;;;;;;8.35;5.22;;;14.50;36.80;;;;;;5014125;27;114255;-85
2023/04/24 01:50:13;;;;;;;6.00;5.07;;;14.50;37.00;;;;;;5030350;27;117654;-85
2023/04/24 01:52:40;;;;;;;6.72;5.07;;;14.60;36.90;;;;;;5013170;27;118036;-85
2023/04/24 01:55:09;;;;;;;9.05;5.13;;;14.50;36.90;;;;;;5065367;27;114186;-85
2023/04/24 01:57:37;;;;;;;6.60;5.03;;;14.50;37.00;;;;;;5047774;27;114570;-84
2023/04/24 02:00:06;;;;;;;7.00;5.32;;;14.50;36.90;;;;;;5029468;27;117742;-84
2023/04/24 02:02:40;;;;;;;7.03;5.30;;;14.50;37.00;;;;;;5030611;27;117947;-84
2023/04/24 02:05:09;;;;;;;6.97;4.75;;;14.40;37.00;;;;;;5065391;27;115683;-83
2023/04/24 02:07:38;;;;;;;8.07;5.20;;;14.40;37.00;;;;;;5086061;27;114286;-83
2023/04/24 02:10:06;;;;;;;6.72;4.90;;;14.50;37.00;;;;;;5050167;27;117988;-84
2023/04/24 02:12:33;;;;;;;9.38;5.32;;;14.50;37.00;;;;;;5030141;27;114723;-84
2023/04/24 02:15:01;;;;;;;6.07;5.03;;;14.50;36.90;;;;;;5047277;27;114564;-84
2023/04/24 02:17:29;;;;;;;8.07;5.00;;;14.40;37.00;;;;;;5047745;27;114599;-84
2023/04/24 02:19:56;;;;;;;9.98;5.60;;;14.50;37.10;;;;;;4997577;27;117988;-84
2023/04/24 02:22:23;;;;;;;7.22;5.05;;;14.50;36.90;;;;;;5046178;27;115350;-84
2023/04/24 02:24:50;;;;;;;7.07;4.70;;;14.50;36.90;;;;;;5067319;27;114135;-82
2023/04/24 02:27:18;;;;;;;8.20;5.07;;;14.50;36.90;;;;;;5032118;27;114401;-84
2023/04/24 02:29:45;;;;;;;7.00;4.90;;;14.50;37.10;;;;;;5033218;27;115720;-84
2023/04/24 02:32:12;;;;;;;8.35;4.85;;;14.50;37.20;;;;;;5084197;27;118235;-84
2023/04/24 02:34:40;;;;;;;8.52;5.55;;;14.50;37.00;;;;;;5050775;27;114406;-83
2023/04/24 02:37:08;;;;;;;8.75;5.03;;;14.50;37.10;;;;;;5067861;27;114164;-83
2023/04/24 02:39:36;;;;;;;6.85;5.22;;;14.40;37.10;;;;;;5066280;27;115108;-84
2023/04/24 02:42:13;;;;;;;7.55;4.70;;;14.30;37.10;;;;;;5068809;27;114652;-84
2023/04/24 02:44:40;;;;;;;6.63;4.80;;;14.30;37.30;;;;;;5085980;27;114454;-84
2023/04/24 02:47:08;;;;;;;7.93;4.75;;;14.30;37.30;;;;;;5049919;27;114821;-83
2023/04/24 02:49:36;;;;;;;7.32;4.97;;;14.20;37.40;;;;;;5034478;27;117898;-83
2023/04/24 02:52:04;;;;;;;5.72;4.45;;;14.30;37.40;;;;;;5054311;27;114443;-84
2023/04/24 02:54:32;;;;;;;10.82;4.93;;;14.30;37.40;;;;;;5070682;27;114631;-83
2023/04/24 02:57:00;;;;;;;6.55;5.15;;;14.30;37.30;;;;;;5070806;27;114643;-83
2023/04/24 02:59:29;;;;;;;7.30;5.00;;;14.30;37.40;;;;;;5053531;27;117277;-85
2023/04/24 03:01:56;;;;;;;5.68;4.43;;;14.20;37.30;;;;;;5052567;27;117586;-85
2023/04/24 03:04:23;;;;;;;8.50;4.47;;;14.20;37.30;;;;;;5070371;27;114535;-85
2023/04/24 03:06:52;;;;;;;7.55;5.32;;;14.20;37.40;;;;;;5037806;27;114678;-85
2023/04/24 03:09:20;;;;;;;7.20;4.95;;;14.20;37.50;;;;;;5036906;27;117523;-83
2023/04/24 03:11:48;;;;;;;8.88;4.80;;;14.10;37.50;;;;;;5069653;27;114703;-83
2023/04/24 03:14:16;;;;;;;6.10;4.43;;;14.10;37.50;;;;;;5070019;27;114604;-83
2023/04/24 03:16:43;;;;;;;8.77;5.95;;;14.00;37.60;;;;;;5037167;27;114600;-83
2023/04/24 03:19:10;;;;;;;7.10;4.97;;;14.00;37.60;;;;;;5052887;27;116094;-83
2023/04/24 03:21:47;;;;;;;7.03;4.97;;;14.00;37.50;;;;;;5038408;27;117898;-83
2023/04/24 03:24:14;;;;;;;6.20;4.45;;;14.00;37.60;;;;;;5070755;27;114713;-83
2023/04/24 03:26:41;;;;;;;5.72;4.80;;;14.10;37.50;;;;;;5053177;27;116242;-84
2023/04/24 03:29:26;;;;;;;6.85;4.70;;;14.10;37.40;;;;;;5086594;27;115077;-85
2023/04/24 03:31:56;;;;;;;6.75;4.60;;;14.00;37.40;;;;;;5039593;27;117496;-85
2023/04/24 03:34:24;;;;;;;7.78;4.90;;;14.10;37.50;;;;;;5030481;27;114342;-85
2023/04/24 03:36:52;;;;;;;8.30;4.78;;;14.10;37.50;;;;;;5016408;27;114610;-86
2023/04/24 03:39:20;;;;;;;7.00;4.13;;;14.10;37.40;;;;;;5032053;27;114885;-85
2023/04/24 03:41:53;;;;;;;12.43;5.05;;;14.10;37.30;;;;;;5036650;27;115174;-84
2023/04/24 03:44:25;;;;;;;5.53;4.57;;;14.10;37.30;;;;;;5031284;27;114292;-84
2023/04/24 03:46:53;;;;;;;7.45;4.75;;;14.10;37.40;;;;;;5032760;27;114385;-85
2023/04/24 03:49:23;;;;;;;9.43;4.72;;;14.10;37.20;;;;;;5022395;27;118128;-85
2023/04/24 03:51:52;;;;;;;8.00;4.60;;;14.10;37.20;;;;;;5014800;27;118393;-85
2023/04/24 03:54:22;;;;;;;7.00;4.50;;;14.00;37.30;;;;;;5016607;27;114764;-85
2023/04/24 03:56:51;;;;;;;6.40;4.65;;;14.00;37.40;;;;;;5034255;27;114196;-85
2023/04/24 03:59:18;;;;;;;6.13;4.95;;;14.00;37.20;;;;;;5048236;27;118349;-85
2023/04/24 04:01:52;;;;;;;6.20;5.07;;;14.10;37.30;;;;;;5033059;27;117684;-85
2023/04/24 04:04:20;;;;;;;7.05;5.00;;;14.10;37.30;;;;;;5031798;27;114283;-83
2023/04/24 04:06:48;;;;;;;5.97;4.35;;;14.20;37.30;;;;;;5033405;27;114529;-84
2023/04/24 04:09:15;;;;;;;8.40;4.68;;;14.20;37.00;;;;;;5031553;27;118846;-84
2023/04/24 04:11:42;;;;;;;7.05;4.88;;;14.30;37.10;;;;;;5033894;27;115760;-85
2023/04/24 04:14:12;;;;;;;6.85;4.65;;;14.40;37.00;;;;;;5016147;27;114204;-85
2023/04/24 04:16:42;;;;;;;6.22;4.70;;;14.40;37.00;;;;;;5019459;27;114890;-86
2023/04/24 04:19:12;;;;;;;7.47;4.75;;;14.40;37.00;;;;;;5045903;27;118856;-85
2023/04/24 04:21:39;;;;;;;7.55;4.78;;;14.50;37.00;;;;;;5039718;27;116134;-85
2023/04/24 04:24:23;;;;;;;7.22;4.88;;;14.50;37.00;;;;;;5003127;27;114425;-84
2023/04/24 04:26:52;;;;;;;7.53;4.65;;;14.60;36.80;;;;;;5046775;27;116262;-83
2023/04/24 04:29:27;;;;;;;7.85;5.38;;;14.60;36.90;;;;;;5016662;27;118931;-83
2023/04/24 04:31:55;;;;;;;6.75;4.72;;;14.60;36.90;;;;;;5046794;27;120481;-83
2023/04/24 04:34:23;;;;;;;8.88;4.18;;;14.70;36.90;;;;;;5042194;27;114322;-82
2023/04/24 04:36:52;;;;;;;7.68;4.72;;;14.80;36.60;;;;;;5045250;27;115425;-83
2023/04/24 04:39:35;;;;;;;6.65;4.88;;;14.80;36.60;;;;;;5072145;27;116172;-84
2023/04/24 04:42:16;;;;;;;7.28;5.03;;;14.70;36.60;;;;;;5042881;27;114580;-83
2023/04/24 04:44:44;;;;;;;6.75;4.60;;;14.80;36.30;;;;;;5044075;27;114673;-83
2023/04/24 04:47:17;;;;;;;6.45;4.85;;;14.80;36.20;;;;;;5045447;27;114715;-83
2023/04/24 04:49:44;;;;;;;8.65;7.03;;;14.80;36.30;;;;;;5048046;27;114955;-83
2023/04/24 04:52:19;;;;;;;9.10;4.88;;;14.80;36.30;;;;;;5060014;27;114877;-83
2023/04/24 04:54:51;;;;;;;6.20;4.88;;;14.80;36.30;;;;;;5060621;27;114251;-83
2023/04/24 04:57:23;;;;;;;6.47;4.30;;;14.70;36.40;;;;;;5048618;27;114585;-83
2023/04/24 04:59:54;;;;;;;6.20;4.40;;;14.70;36.30;;;;;;5058511;27;121177;-83
2023/04/24 05:02:37;;;;;;;6.13;4.80;;;14.80;36.40;;;;;;5061279;27;115359;-83
2023/04/24 05:05:05;;;;;;;5.75;4.65;;;14.80;36.10;;;;;;5048493;27;114255;-83
2023/04/24 05:07:34;;;;;;;7.15;4.35;;;14.80;36.10;;;;;;5070594;27;115446;-83
2023/04/24 05:10:02;;;;;;;5.80;4.20;;;14.80;36.10;;;;;;5085737;27;115056;-83
2023/04/24 05:12:30;;;;;;;6.90;4.55;;;14.80;36.30;;;;;;5051051;27;115792;-85
2023/04/24 05:14:57;;;;;;;7.20;4.97;;;14.90;36.40;;;;;;5066655;27;114316;-84
2023/04/24 05:17:26;;;;;;;5.93;4.50;;;15.00;36.30;;;;;;5066942;27;114315;-84
2023/04/24 05:19:55;;;;;;;6.53;4.90;;;15.00;36.00;;;;;;5068016;27;117307;-84
2023/04/24 05:22:23;;;;;;;7.38;4.20;;;15.00;36.00;;;;;;5063878;27;114856;-85
2023/04/24 05:24:51;;;;;;;9.77;4.57;;;15.00;36.00;;;;;;5016777;27;114304;-84
2023/04/24 05:27:35;;;;;;;5.63;4.40;;;14.90;36.10;;;;;;5032911;27;114339;-83
2023/04/24 05:30:09;;;;;;;7.72;5.20;;;14.90;36.10;;;;;;5032674;27;114955;-83
2023/04/24 05:32:36;;;;;;;6.40;5.20;;;14.80;36.20;;;;;;5019555;27;117595;-83
2023/04/24 05:35:04;;;;;;;7.63;5.20;;;14.80;36.20;;;;;;5059303;27;117894;-84
2023/04/24 05:37:31;;;;;;;7.38;4.72;;;14.80;36.30;;;;;;5047909;27;114471;-83
2023/04/24 05:39:58;;;;;;;7.38;5.00;;;14.80;36.30;;;;;;5014254;27;114866;-84
2023/04/24 05:42:26;;;;;;;7.65;5.10;;;14.90;36.50;;;;;;5030374;27;114677;-84
2023/04/24 05:44:54;;;;;;;8.30;5.07;;;15.00;36.40;;;;;;5046653;27;114618;-84
2023/04/24 05:47:24;;;;;;;8.20;5.82;;;15.00;36.60;;;;;;5054522;27;114579;-84
2023/04/24 05:49:53;;;;;;;6.18;4.65;;;15.10;36.50;;;;;;5030276;27;115425;-84
2023/04/24 05:52:20;;;;;;;7.70;4.93;;;15.20;36.20;;;;;;5064410;27;114650;-85
2023/04/24 05:54:50;;;;;;;8.52;4.72;;;15.20;36.10;;;;;;5066420;27;114916;-83
2023/04/24 05:57:21;;;;;;;9.38;4.93;;;15.20;36.00;;;;;;5086979;27;114286;-83
2023/04/24 06:00:04;;;;;;;8.77;5.07;;;15.20;36.00;;;;;;5078226;27;114863;-84
2023/04/24 06:02:39;;;;;;;6.13;4.70;;;15.20;36.10;;;;;;5048413;27;114556;-83
2023/04/24 06:05:10;;;;;;;8.38;4.80;;;15.30;36.10;;;;;;5082277;27;114515;-84
2023/04/24 06:07:37;;;;;;;7.82;4.82;;;15.40;36.10;;;;;;5050421;27;114630;-83
2023/04/24 06:10:06;;;;;;;7.32;4.97;;;15.50;35.90;;;;;;5061296;27;116822;-84
2023/04/24 06:12:40;;;;;;;6.83;4.90;;;15.60;35.90;;;;;;5083329;27;114644;-85
2023/04/24 06:15:12;;;;;;;6.63;4.90;;;15.50;35.90;;;;;;5083042;27;114690;-83
2023/04/24 06:17:54;;;;;;;9.88;5.35;;;15.50;36.00;;;;;;5081633;27;114245;-84
2023/04/24 06:20:22;;;;;;;7.32;5.07;;;15.50;36.00;;;;;;5062444;27;115403;-85
2023/04/24 06:22:49;;;;;;;7.97;4.97;;;15.50;36.10;;;;;;5030162;27;115654;-85
2023/04/24 06:25:16;;;;;;;7.53;5.00;;;15.50;36.30;;;;;;5068206;27;114464;-83
2023/04/24 06:27:43;;;;;;;8.32;5.32;;;15.60;36.50;;;;;;5069320;27;114555;-85
2023/04/24 06:30:13;;;;;;;6.43;5.30;;;15.70;36.30;;;;;;5067832;27;114942;-83
2023/04/24 06:32:40;;;;;;;8.75;5.40;;;15.80;36.30;;;;;;5070833;27;115892;-83
2023/04/24 06:35:11;;;;;;;8.00;4.78;;;15.80;36.40;;;;;;5052937;27;115661;-83
2023/04/24 06:37:41;;;;;;;8.25;5.43;;;15.80;36.30;;;;;;5068635;27;115667;-83
2023/04/24 06:40:09;;;;;;;7.82;5.55;;;15.90;36.10;;;;;;5033577;27;118504;-83
2023/04/24 06:42:36;;;;;;;8.38;5.70;;;15.80;36.40;;;;;;5066832;27;114961;-84
2023/04/24 06:45:07;;;;;;;9.35;5.85;;;16.00;36.30;;;;;;5018408;27;114416;-84
2023/04/24 06:47:34;;;;;;;11.85;5.93;;;16.10;36.40;;;;;;5066375;27;114443;-84
2023/04/24 06:50:02;;;;;;;7.25;5.38;;;16.20;36.40;;;;;;5071948;27;114885;-84
2023/04/24 06:52:32;;;;;;;8.13;5.82;;;16.30;36.50;;;;;;5068191;27;114648;-83
2023/04/24 06:55:01;;;;;;;8.50;5.70;;;16.30;36.40;;;;;;5057414;27;114608;-83
2023/04/24 06:57:29;;;;;;;6.97;5.60;;;16.40;36.50;;;;;;5057010;27;114514;-83
2023/04/24 06:59:57;;;;;;;7.60;5.35;;;16.60;36.30;;;;;;5065118;27;118069;-83
2023/04/24 07:02:24;;;;;;;8.13;5.40;;;16.70;36.30;;;;;;5058285;27;114626;-84
2023/04/24 07:04:53;;;;;;;7.15;5.13;;;16.70;36.30;;;;;;5051132;27;116831;-85
2023/04/24 07:07:20;;;;;;;7.88;5.28;;;16.80;36.50;;;;;;5057159;27;114673;-85
2023/04/24 07:09:50;;;;;;;9.60;5.80;;;16.80;36.30;;;;;;5059886;27;116139;-83
2023/04/24 07:12:21;;;;;;;8.88;5.43;;;16.90;36.20;;;;;;5060937;27;114781;-84
2023/04/24 07:14:48;;;;;;;8.07;5.10;;;16.90;36.40;;;;;;5066883;27;114615;-84
2023/04/24 07:17:15;;;;;;;8.70;5.65;;;17.00;36.40;;;;;;5056455;27;114663;-82
2023/04/24 07:19:42;;;;;;;9.55;5.30;;;17.10;36.70;;;;;;5068458;27;115485;-84
2023/04/24 07:22:16;;;;;;;12.02;5.50;;;17.20;36.80;;;;;;5056724;27;117017;-84
2023/04/24 07:24:44;;;;;;;8.20;5.17;;;17.30;36.60;;;;;;5041614;27;114322;-84
2023/04/24 07:27:11;;;;;;;10.60;5.50;;;17.30;36.40;;;;;;5069789;27;115604;-83
2023/04/24 07:29:39;;;;;;;9.77;5.60;;;17.50;36.30;;;;;;5068069;27;114205;-83
2023/04/24 07:32:07;;;;;;;8.00;5.25;;;17.60;36.00;;;;;;5068469;27;114592;-84
2023/04/24 07:34:36;;;;;;;9.20;5.00;;;17.70;36.00;;;;;;5071733;27;115508;-84
2023/04/24 07:37:04;;;;;;;9.38;5.60;;;17.80;35.90;;;;;;5083302;27;114364;-84
2023/04/24 07:39:31;;;;;;;9.07;5.05;;;17.80;35.80;;;;;;5082033;27;114804;-84
2023/04/24 07:41:59;;;;;;;9.32;5.88;;;17.80;35.80;;;;;;5069108;27;114649;-83
2023/04/24 07:44:26;;;;;;;9.48;5.35;;;17.80;35.60;;;;;;5068775;27;114209;-84
2023/04/24 07:46:53;;;;;;;10.45;5.38;;;17.80;35.70;;;;;;5068756;27;114147;-83
2023/04/24 07:49:22;;;;;;;10.70;5.35;;;17.80;35.70;;;;;;5067217;27;114872;-83
2023/04/24 07:51:49;;;;;;;9.27;6.00;;;17.70;35.60;;;;;;5061334;27;115050;-83
2023/04/24 07:54:16;;;;;;;11.90;7.18;;;17.70;35.80;;;;;;5061212;27;114719;-83
2023/04/24 07:56:44;;;;;;;16.80;10.50;;;17.70;35.90;;;;;;5067666;27;114647;-83
2023/04/24 07:59:14;;;;;;;18.75;11.35;;;17.80;35.30;;;;;;5067762;27;117683;-84
2023/04/24 08:01:41;;;;;;;14.60;10.35;;;17.70;35.50;;;;;;5013512;27;114609;-83
2023/04/24 08:04:08;;;;;;;15.27;8.20;;;17.60;35.50;;;;;;5067609;27;114665;-84
2023/04/24 08:06:36;;;;;;;20.55;9.85;;;17.60;35.20;;;;;;5049263;27;114331;-82
2023/04/24 08:09:03;;;;;;;15.02;7.43;;;17.50;34.60;;;;;;5066911;27;114970;-84
2023/04/24 08:11:31;;;;;;;12.80;6.70;;;17.30;34.90;;;;;;5030209;27;118154;-84
2023/04/24 08:13:59;;;;;;;10.88;5.43;;;17.20;35.00;;;;;;5082153;27;114677;-83
2023/04/24 08:16:27;;;;;;;12.25;6.60;;;17.10;35.40;;;;;;5065676;27;116362;-84
2023/04/24 08:18:54;;;;;;;12.35;6.00;;;17.00;35.40;;;;;;5031244;27;114975;-84
2023/04/24 08:21:21;;;;;;;16.38;7.80;;;16.90;35.90;;;;;;5066900;27;118040;-83
2023/04/24 08:23:48;;;;;;;10.95;7.00;;;16.90;36.10;;;;;;5080832;27;118583;-83
2023/04/24 08:26:16;;;;;;;12.98;6.47;;;17.00;36.20;;;;;;5070069;27;114627;-83
2023/04/24 08:28:43;;;;;;;11.15;6.30;;;17.00;36.30;;;;;;5072371;27;115101;-83
2023/04/24 08:31:11;;;;;;;10.80;6.30;;;17.00;36.50;;;;;;5048927;27;117292;-82
2023/04/24 08:33:41;;;;;;;12.82;6.80;;;17.00;36.50;;;;;;5050518;27;114505;-82
2023/04/24 08:36:10;;;;;;;14.05;6.78;;;17.10;36.60;;;;;;5032903;27;114883;-83
2023/04/24 08:38:39;;;;;;;10.43;6.70;;;17.20;36.50;;;;;;5067653;27;114984;-84
2023/04/24 08:41:09;;;;;;;14.20;7.28;;;17.20;37.00;;;;;;5066760;27;115862;-83
2023/04/24 08:43:46;;;;;;;13.27;6.60;;;17.20;37.40;;;;;;5070341;27;116093;-84
2023/04/24 08:46:13;;;;;;;9.98;6.97;;;17.20;37.70;;;;;;5062110;27;117212;-84
2023/04/24 08:48:42;;;;;;;11.15;6.90;;;17.20;38.00;;;;;;5053957;27;115152;-83
2023/04/24 08:51:11;;;;;;;14.18;7.43;;;17.20;38.50;;;;;;5067993;27;114649;-84
2023/04/24 08:53:40;;;;;;;12.20;7.10;;;17.20;38.10;;;;;;5068008;27;114235;-83
2023/04/24 08:56:13;;;;;;;12.82;7.22;;;17.20;38.30;;;;;;5068780;27;114492;-85
2023/04/24 08:58:43;;;;;;;12.95;7.82;;;17.10;38.50;;;;;;5072722;27;114986;-84
2023/04/24 09:01:10;;;;;;;15.23;8.30;;;17.00;38.80;;;;;;5048809;27;114811;-82
2023/04/24 09:03:38;;;;;;;11.50;7.63;;;17.00;39.50;;;;;;5065250;27;114301;-84
2023/04/24 09:06:08;;;;;;;10.68;7.50;;;17.00;39.50;;;;;;5064651;27;114241;-84
2023/04/24 09:08:35;;;;;;;13.55;7.70;;;17.00;39.60;;;;;;5066904;27;116229;-83
2023/04/24 09:11:04;;;;;;;10.98;7.35;;;16.90;39.10;;;;;;5068299;27;116621;-83
2023/04/24 09:13:32;;;;;;;10.88;7.57;;;16.90;39.80;;;;;;5067223;27;114374;-84
2023/04/24 09:16:00;;;;;;;11.90;8.00;;;16.90;39.50;;;;;;5069346;27;114650;-82
2023/04/24 09:18:27;;;;;;;9.68;7.40;;;16.90;39.80;;;;;;5064318;27;117239;-83
2023/04/24 09:21:01;;;;;;;9.93;7.05;;;16.90;39.80;;;;;;5060875;27;117425;-82
2023/04/24 09:23:30;;;;;;;12.07;7.43;;;16.90;39.70;;;;;;5069025;27;114456;-83
2023/04/24 09:26:01;;;;;;;13.43;8.65;;;16.80;40.40;;;;;;5066985;27;114452;-83
2023/04/24 09:28:37;;;;;;;12.30;8.27;;;16.80;40.80;;;;;;5029718;27;118169;-84
2023/04/24 09:31:08;;;;;;;10.77;8.43;;;16.80;42.90;;;;;;5036506;27;114620;-84
2023/04/24 09:33:37;;;;;;;13.80;9.43;;;16.90;44.40;;;;;;5039113;27;114551;-82
2023/04/24 09:36:12;;;;;;;12.30;8.63;;;16.90;46.60;;;;;;5022334;27;114607;-83
2023/04/24 09:38:42;;;;;;;11.95;8.55;;;16.80;46.60;;;;;;5010629;27;114952;-83
2023/04/24 09:41:13;;;;;;;11.57;8.52;;;16.70;46.20;;;;;;5038425;27;115605;-82
2023/04/24 09:43:42;;;;;;;12.75;8.48;;;16.70;46.20;;;;;;5029692;27;114426;-83
2023/04/24 09:46:10;;;;;;;12.70;8.05;;;16.70;46.10;;;;;;5041876;27;114390;-86
2023/04/24 09:48:41;;;;;;;11.43;8.63;;;16.60;46.00;;;;;;5037512;27;117456;-83
2023/04/24 09:51:10;;;;;;;12.82;8.43;;;16.60;46.20;;;;;;5009650;27;117033;-84
2023/04/24 09:53:47;;;;;;;11.43;8.43;;;16.60;46.10;;;;;;5008389;27;115434;-84
2023/04/24 09:56:36;;;;;;;11.20;7.95;;;16.60;46.20;;;;;;5025400;27;114369;-84
2023/04/24 09:59:06;;;;;;;11.02;7.68;;;16.60;46.30;;;;;;5024244;27;115027;-83
2023/04/24 10:01:34;;;;;;;11.75;8.82;;;16.50;46.60;;;;;;5063057;27;115808;-83
2023/04/24 10:04:01;;;;;;;15.57;10.70;;;16.50;47.20;;;;;;5085943;27;114293;-83
2023/04/24 10:06:33;;;;;;;18.10;10.57;;;16.60;47.70;;;;;;5086447;27;114277;-83
2023/04/24 10:09:00;;;;;;;9.23;6.72;;;16.60;47.00;;;;;;5035585;27;117858;-83
2023/04/24 10:11:28;;;;;;;10.40;7.35;;;16.50;44.40;;;;;;5067074;27;114643;-83
2023/04/24 10:13:57;;;;;;;8.65;7.03;;;16.50;44.70;;;;;;5066507;27;114187;-83
2023/04/24 10:16:26;;;;;;;7.05;5.57;;;16.50;44.10;;;;;;5071842;27;114414;-82
2023/04/24 10:18:55;;;;;;;7.47;5.68;;;16.40;43.30;;;;;;5050593;27;115381;-83
2023/04/24 10:21:23;;;;;;;6.57;5.57;;;16.20;43.00;;;;;;5066670;27;114609;-83
2023/04/24 10:23:50;;;;;;;8.00;5.90;;;16.10;43.10;;;;;;5030403;27;114707;-83
2023/04/24 10:26:23;;;;;;;7.47;5.45;;;15.90;43.40;;;;;;5031040;27;115665;-82
2023/04/24 10:28:51;;;;;;;7.68;5.45;;;15.80;43.90;;;;;;5048431;27;115114;-82
2023/04/24 10:31:23;;;;;;;8.13;5.90;;;15.60;44.50;;;;;;5048167;27;114735;-84
2023/04/24 10:33:53;;;;;;;10.32;6.35;;;15.50;45.70;;;;;;5026621;27;116379;-83
2023/04/24 10:36:20;;;;;;;9.00;6.35;;;15.30;46.00;;;;;;5028206;27;114571;-83
2023/04/24 10:38:52;;;;;;;7.53;6.13;;;15.20;46.70;;;;;;5027072;27;115028;-83
2023/04/24 10:41:22;;;;;;;8.30;6.97;;;15.10;47.70;;;;;;5026355;27;114976;-83
2023/04/24 10:44:13;;;;;;;12.48;7.03;;;14.90;48.50;;;;;;5032100;27;114678;-82
2023/04/24 10:46:45;;;;;;;8.05;6.80;;;14.90;48.70;;;;;;5014692;27;114836;-83
2023/04/24 10:49:12;;;;;;;8.70;6.53;;;14.70;50.00;;;;;;5045933;27;115399;-82
2023/04/24 10:51:46;;;;;;;8.30;7.28;;;14.70;50.60;;;;;;5044158;27;115295;-83
2023/04/24 10:54:26;;;;;;;;;;;14.70;51.40;;;;;;5041382;27;114610;-83
2023/04/24 10:57:28;;;;;;;9.57;7.10;;;14.50;49.50;;;;;;5026893;27;115836;-84
2023/04/24 11:00:16;;;;;;;9.52;7.10;;;14.50;51.40;;;;;;5042123;27;115637;-84
2023/04/24 11:02:48;;;;;;;8.98;8.05;;;14.40;51.50;;;;;;5010319;27;114876;-84
2023/04/24 11:05:17;;;;;;;10.45;6.93;;;14.40;52.40;;;;;;5043133;27;117785;-83
2023/04/24 11:08:14;;;;;;;8.77;7.00;;;14.50;51.40;;;;;;5068505;27;114350;-83
2023/04/24 11:10:45;;;;;;;9.00;7.18;;;14.60;51.30;;;;;;5084006;27;114980;-83
2023/04/24 11:13:21;;;;;;;8.52;7.03;;;14.50;51.40;;;;;;5078737;27;114620;-84
2023/04/24 11:16:13;;;;;;;10.75;7.63;;;14.60;51.40;;;;;;5073051;27;114192;-83
2023/04/24 11:18:45;;;;;;;9.30;6.40;;;14.60;51.00;;;;;;5070613;27;114249;-84
2023/04/24 11:21:16;;;;;;;8.70;7.10;;;14.60;51.00;;;;;;5055390;27;114962;-84
2023/04/24 11:23:45;;;;;;;10.52;7.47;;;14.70;51.00;;;;;;5014545;27;114707;-84
2023/04/24 11:26:19;;;;;;;9.57;7.60;;;14.70;51.60;;;;;;5049489;27;114747;-83
2023/04/24 11:28:53;;;;;;;10.05;7.88;;;14.70;52.00;;;;;;5014363;27;114513;-84
2023/04/24 11:31:36;;;;;;;10.68;9.57;;;14.70;52.60;;;;;;5028261;27;114874;-84
2023/04/24 11:34:12;;;;;;;10.10;8.80;;;14.70;52.20;;;;;;5045699;27;115343;-83
2023/04/24 11:36:44;;;;;;;10.65;8.55;;;14.70;52.80;;;;;;5031350;27;114435;-84
2023/04/24 11:39:26;;;;;;;8.02;6.85;;;14.80;53.00;;;;;;5003854;27;114361;-83
2023/04/24 11:42:03;;;;;;;10.52;7.50;;;14.90;51.50;;;;;;5048630;27;114844;-84
2023/04/24 11:44:31;;;;;;;7.53;6.82;;;15.00;52.20;;;;;;5030192;27;114955;-83
2023/04/24 11:46:59;;;;;;;7.88;6.13;;;15.10;51.10;;;;;;5013256;27;116357;-83
2023/04/24 11:49:30;;;;;;;7.85;6.68;;;15.20;50.60;;;;;;5047658;27;114631;-83
2023/04/24 11:52:04;;;;;;;8.00;6.38;;;15.20;50.30;;;;;;5044738;27;115347;-82
2023/04/24 11:54:31;;;;;;;7.93;6.75;;;15.20;50.20;;;;;;5051610;27;115292;-83
2023/04/24 11:56:59;;;;;;;9.00;5.93;;;15.20;49.70;;;;;;5050433;27;115604;-82
2023/04/24 11:59:29;;;;;;;7.88;6.43;;;15.10;49.90;;;;;;5046165;27;114256;-84
2023/04/24 12:01:57;;;;;;;9.52;6.47;;;14.90;50.20;;;;;;5063044;27;114898;-84
2023/04/24 12:04:38;;;;;;;9.73;6.68;;;14.80;50.60;;;;;;5058766;27;114607;-84
2023/04/24 12:07:07;;;;;;;8.73;6.57;;;14.70;51.20;;;;;;5015853;27;114257;-84
2023/04/24 12:09:42;;;;;;;8.52;6.53;;;14.70;51.50;;;;;;5063287;27;114571;-84
2023/04/24 12:12:25;;;;;;;8.10;7.20;;;14.70;51.70;;;;;;5059592;27;115255;-84
2023/04/24 12:15:06;;;;;;;8.70;7.22;;;14.60;52.50;;;;;;4970060;27;116986;-84
2023/04/24 12:17:34;;;;;;;7.80;6.95;;;14.60;53.40;;;;;;5006085;27;114648;-83
2023/04/24 12:20:23;;;;;;;9.70;7.88;;;14.50;53.50;;;;;;4973316;27;114654;-84
2023/04/24 12:22:56;;;;;;;8.55;7.65;;;14.30;54.20;;;;;;4970862;27;115253;-85
2023/04/24 12:25:29;;;;;;;11.43;8.52;;;14.20;54.70;;;;;;4993975;27;116963;-85
2023/04/24 12:28:05;;;;;;;11.02;8.65;;;14.20;55.50;;;;;;4989041;27;114342;-84
2023/04/24 12:30:39;;;;;;;11.40;8.85;;;14.10;56.10;;;;;;4988688;27;114419;-84
2023/04/24 12:33:06;;;;;;;12.00;8.75;;;14.10;56.00;;;;;;4985971;27;115042;-84
2023/04/24 12:35:37;;;;;;;11.27;8.35;;;14.20;56.10;;;;;;4970384;27;117049;-85
2023/04/24 12:38:09;;;;;;;10.45;8.90;;;14.20;56.40;;;;;;4987633;27;115012;-84
2023/04/24 12:40:36;;;;;;;10.68;8.52;;;14.20;56.60;;;;;;4987581;27;116067;-83
2023/04/24 12:43:34;;;;;;;10.30;8.63;;;14.10;56.80;;;;;;4966614;28;118776;-83
2023/04/24 12:46:29;;;;;;;12.55;9.15;;;14.10;56.70;;;;;;4967441;28;114781;-84
2023/04/24 12:48:58;;;;;;;12.10;8.85;;;13.90;57.90;;;;;;5002862;28;114671;-82